Time;durP1;ratioP1;P1;durP2;ratioP2;P2;SDS_P1;SDS_P2;PMS_P1;PMS_P2;Temp;Humidity;BMP_temperature;BMP_pressure;BME280_temperature;BME280_humidity;BME280_pressure;Samples;Min_cycle;Max_cycle;Signal;HPM_P1;HPM_P2
2023/11/05 00:00:41;;;;;;;2.50;1.67;;;21.40;58.00;;;;;;5051332;28;20171;-67
2023/11/05 00:03:07;;;;;;;2.20;1.53;;;21.40;58.00;;;;;;5051587;28;20657;-69
2023/11/05 00:05:32;;;;;;;2.67;1.60;;;21.40;58.10;;;;;;5051650;28;20568;-68
2023/11/05 00:07:58;;;;;;;3.50;1.83;;;21.50;58.20;;;;;;5051420;28;20230;-68
2023/11/05 00:10:24;;;;;;;3.70;1.70;;;21.40;58.10;;;;;;5050077;28;20186;-67
2023/11/05 00:12:49;;;;;;;3.80;2.23;;;21.40;58.10;;;;;;5050350;28;20207;-67
2023/11/05 00:15:15;;;;;;;2.60;1.70;;;21.40;58.10;;;;;;5050014;28;20206;-67
2023/11/05 00:17:41;;;;;;;2.70;1.80;;;21.40;58.10;;;;;;5032598;28;20634;-68
2023/11/05 00:20:09;;;;;;;2.47;1.93;;;21.40;58.10;;;;;;5030832;28;20422;-68
2023/11/05 00:22:35;;;;;;;2.60;1.53;;;21.40;58.10;;;;;;5029464;28;20734;-67
2023/11/05 00:25:01;;;;;;;2.50;1.43;;;21.40;58.10;;;;;;5029275;28;20440;-67
2023/11/05 00:27:26;;;;;;;2.50;1.80;;;21.40;58.10;;;;;;5029335;28;20869;-68
2023/11/05 00:29:54;;;;;;;2.30;1.30;;;21.40;58.10;;;;;;5029609;28;20167;-67
2023/11/05 00:32:20;;;;;;;4.03;1.97;;;21.40;58.10;;;;;;5031162;28;20163;-67
2023/11/05 00:34:45;;;;;;;1.53;1.30;;;21.40;58.10;;;;;;5030968;28;20468;-67
2023/11/05 00:37:11;;;;;;;2.57;1.60;;;21.40;58.10;;;;;;5030928;28;20453;-68
2023/11/05 00:39:37;;;;;;;3.10;1.57;;;21.40;58.10;;;;;;5030989;28;20642;-67
2023/11/05 00:42:02;;;;;;;2.60;1.63;;;21.40;58.30;;;;;;5030955;28;20647;-67
2023/11/05 00:44:28;;;;;;;2.50;1.60;;;21.40;58.10;;;;;;5029708;28;20614;-67
2023/11/05 00:46:53;;;;;;;2.70;1.60;;;21.40;58.10;;;;;;5030798;28;20199;-67
2023/11/05 00:49:19;;;;;;;2.27;1.73;;;21.40;58.10;;;;;;5030828;28;20637;-67
2023/11/05 00:51:44;;;;;;;2.60;1.33;;;21.40;58.10;;;;;;5031053;28;20267;-67
2023/11/05 00:54:10;;;;;;;2.10;1.10;;;21.40;58.10;;;;;;5030644;28;20167;-68
2023/11/05 00:56:36;;;;;;;2.70;1.43;;;21.40;58.10;;;;;;5030515;28;20420;-68
2023/11/05 00:59:02;;;;;;;2.00;1.40;;;21.40;58.10;;;;;;5030863;28;20168;-68
2023/11/05 01:01:28;;;;;;;2.30;1.63;;;21.40;58.10;;;;;;5030544;28;20179;-68
2023/11/05 01:03:54;;;;;;;2.57;1.50;;;21.40;58.10;;;;;;5030545;28;20415;-67
2023/11/05 01:06:19;;;;;;;2.57;1.33;;;21.40;58.10;;;;;;5030384;28;20237;-66
2023/11/05 01:08:45;;;;;;;2.67;1.53;;;21.40;58.10;;;;;;5030448;28;20655;-67
2023/11/05 01:11:11;;;;;;;1.70;1.40;;;21.40;58.10;;;;;;5029991;28;20660;-68
2023/11/05 01:13:37;;;;;;;3.57;2.43;;;21.40;58.10;;;;;;5029941;28;20183;-67
2023/11/05 01:16:03;;;;;;;2.03;1.30;;;21.40;58.10;;;;;;5030181;28;20690;-68
2023/11/05 01:18:28;;;;;;;3.07;1.50;;;21.40;58.10;;;;;;5030183;28;20194;-68
2023/11/05 01:20:56;;;;;;;1.83;1.47;;;21.40;58.10;;;;;;5030337;28;20489;-67
2023/11/05 01:23:21;;;;;;;2.20;1.40;;;21.40;58.10;;;;;;5030260;28;20171;-66
2023/11/05 01:25:47;;;;;;;3.17;1.50;;;21.40;58.10;;;;;;5030146;28;20430;-68
2023/11/05 01:28:13;;;;;;;2.93;1.77;;;21.40;58.10;;;;;;5030234;28;20175;-68
2023/11/05 01:30:38;;;;;;;1.80;1.30;;;21.40;58.10;;;;;;5030123;28;20685;-68
2023/11/05 01:33:04;;;;;;;3.13;1.60;;;21.40;58.10;;;;;;5028804;28;20183;-67
2023/11/05 01:35:29;;;;;;;1.93;1.50;;;21.40;58.10;;;;;;5029932;28;20261;-67
2023/11/05 01:37:55;;;;;;;1.90;1.37;;;21.40;58.10;;;;;;5030136;28;20195;-67
2023/11/05 01:40:20;;;;;;;2.40;1.60;;;21.40;58.10;;;;;;5030100;28;20226;-67
2023/11/05 01:42:51;;;;;;;3.17;1.70;;;21.40;58.10;;;;;;5030012;28;20199;-67
2023/11/05 01:45:16;;;;;;;1.70;1.30;;;21.40;58.10;;;;;;5030167;28;20207;-67
2023/11/05 01:47:42;;;;;;;1.83;1.30;;;21.40;58.20;;;;;;5029950;28;20421;-67
2023/11/05 01:50:09;;;;;;;1.80;1.20;;;21.40;58.10;;;;;;5029978;28;20202;-67
2023/11/05 01:52:36;;;;;;;2.27;1.20;;;21.40;58.20;;;;;;5029947;28;20415;-68
2023/11/05 01:55:03;;;;;;;2.33;1.70;;;21.40;58.80;;;;;;5029779;28;20434;-67
2023/11/05 01:57:29;;;;;;;1.90;1.40;;;21.40;58.20;;;;;;5028459;28;20415;-68
2023/11/05 01:59:55;;;;;;;2.00;1.33;;;21.40;58.20;;;;;;5029831;28;20421;-68
2023/11/05 02:02:22;;;;;;;3.27;1.47;;;21.40;58.20;;;;;;5030064;28;20410;-68
2023/11/05 02:04:48;;;;;;;2.73;1.40;;;21.40;58.20;;;;;;5029741;28;20198;-67
2023/11/05 02:07:14;;;;;;;1.87;1.37;;;21.40;58.20;;;;;;5029784;28;20410;-68
2023/11/05 02:09:41;;;;;;;2.97;1.50;;;21.40;58.20;;;;;;5029730;28;20411;-67
2023/11/05 02:12:07;;;;;;;1.73;1.40;;;21.40;58.20;;;;;;5029691;28;20187;-67
2023/11/05 02:14:32;;;;;;;1.73;1.60;;;21.40;58.20;;;;;;5029722;28;20410;-68
2023/11/05 02:16:58;;;;;;;3.00;1.80;;;21.40;58.20;;;;;;5029401;28;20682;-68
2023/11/05 02:19:24;;;;;;;2.23;1.50;;;21.40;58.20;;;;;;5029727;28;20171;-68
2023/11/05 02:21:55;;;;;;;2.00;1.80;;;21.40;58.20;;;;;;5029630;28;20663;-68
2023/11/05 02:24:24;;;;;;;2.77;1.70;;;21.40;58.20;;;;;;5032415;28;20387;-67
2023/11/05 02:26:57;;;;;;;2.87;1.53;;;21.40;58.20;;;;;;5033732;28;20430;-67
2023/11/05 02:29:22;;;;;;;2.13;1.50;;;21.40;58.20;;;;;;5033717;28;20420;-67
2023/11/05 02:31:48;;;;;;;1.60;1.33;;;21.40;58.20;;;;;;5033427;28;20873;-68
2023/11/05 02:34:13;;;;;;;4.03;1.70;;;21.40;58.20;;;;;;5033390;28;20183;-68
2023/11/05 02:36:40;;;;;;;1.87;1.30;;;21.40;58.20;;;;;;5033238;28;20555;-68
2023/11/05 02:39:05;;;;;;;2.50;1.67;;;21.40;58.20;;;;;;5033315;28;20195;-67
2023/11/05 02:41:31;;;;;;;2.47;1.40;;;21.40;58.20;;;;;;5033221;28;20409;-67
2023/11/05 02:43:57;;;;;;;2.00;1.30;;;21.40;58.20;;;;;;5033239;28;20889;-68
2023/11/05 02:46:22;;;;;;;1.90;1.13;;;21.40;58.20;;;;;;5033104;28;20282;-68
2023/11/05 02:48:48;;;;;;;1.60;1.20;;;21.40;58.20;;;;;;5033191;28;20549;-68
2023/11/05 02:51:13;;;;;;;2.10;1.50;;;21.40;58.20;;;;;;5033096;28;20168;-67
2023/11/05 02:53:39;;;;;;;1.97;1.60;;;21.40;58.20;;;;;;5033095;28;20979;-68
2023/11/05 02:56:05;;;;;;;2.23;1.63;;;21.40;58.30;;;;;;5031482;28;20211;-68
2023/11/05 02:58:31;;;;;;;2.40;1.47;;;21.40;58.20;;;;;;5033012;28;20168;-67
2023/11/05 03:00:56;;;;;;;2.40;1.50;;;21.30;58.20;;;;;;5032928;28;20587;-67
2023/11/05 03:03:22;;;;;;;2.37;1.20;;;21.40;58.20;;;;;;5032839;28;20164;-68
2023/11/05 03:05:47;;;;;;;2.47;1.10;;;21.40;58.20;;;;;;5032725;28;20268;-67
2023/11/05 03:08:13;;;;;;;2.70;1.30;;;21.40;58.20;;;;;;5035922;28;20175;-67
2023/11/05 03:10:39;;;;;;;2.53;1.40;;;21.40;58.20;;;;;;5052654;28;20183;-68
2023/11/05 03:13:06;;;;;;;1.50;1.17;;;21.40;58.20;;;;;;5052869;28;20285;-67
2023/11/05 03:15:31;;;;;;;2.17;1.33;;;21.40;58.20;;;;;;5052661;28;20485;-67
2023/11/05 03:17:57;;;;;;;2.07;1.30;;;21.40;58.20;;;;;;5052468;28;20477;-68
2023/11/05 03:20:22;;;;;;;1.40;1.00;;;21.30;58.20;;;;;;5052435;28;20175;-67
2023/11/05 03:22:48;;;;;;;2.97;1.40;;;21.40;58.20;;;;;;5052491;28;20182;-68
2023/11/05 03:25:14;;;;;;;1.30;1.07;;;21.30;58.20;;;;;;5052355;28;20665;-68
2023/11/05 03:27:39;;;;;;;1.90;1.43;;;21.40;58.20;;;;;;5052416;28;20175;-68
2023/11/05 03:30:06;;;;;;;1.77;1.20;;;21.30;58.20;;;;;;5052299;28;20207;-67
2023/11/05 03:32:32;;;;;;;1.70;1.20;;;21.40;58.20;;;;;;5052591;28;20634;-68
2023/11/05 03:34:57;;;;;;;2.47;1.50;;;21.40;58.30;;;;;;5051145;28;20932;-68
2023/11/05 03:37:23;;;;;;;1.30;1.10;;;21.30;58.20;;;;;;5052179;28;20416;-67
2023/11/05 03:39:49;;;;;;;1.60;1.30;;;21.40;58.20;;;;;;5052066;28;20230;-68
2023/11/05 03:42:15;;;;;;;2.07;1.13;;;21.40;58.20;;;;;;5052146;28;20666;-68
2023/11/05 03:44:41;;;;;;;2.03;1.60;;;21.40;58.30;;;;;;5051941;28;20538;-67
2023/11/05 03:47:07;;;;;;;2.50;1.40;;;21.30;58.20;;;;;;5052021;28;20418;-67
2023/11/05 03:49:32;;;;;;;1.57;1.20;;;21.40;58.30;;;;;;5050601;28;20179;-67
2023/11/05 03:51:59;;;;;;;2.37;1.33;;;21.30;58.20;;;;;;5052021;28;20178;-67
2023/11/05 03:54:25;;;;;;;1.83;1.30;;;21.40;58.30;;;;;;5051947;28;20171;-67
2023/11/05 03:56:50;;;;;;;2.73;1.53;;;21.30;58.20;;;;;;5051759;28;20464;-67
2023/11/05 03:59:16;;;;;;;1.80;1.23;;;21.30;58.20;;;;;;5051836;28;20179;-67
2023/11/05 04:01:41;;;;;;;2.80;1.40;;;21.40;58.30;;;;;;5050346;28;20175;-67
2023/11/05 04:04:10;;;;;;;1.73;1.30;;;21.40;58.30;;;;;;5051712;28;20163;-68
2023/11/05 04:06:36;;;;;;;2.40;1.33;;;21.40;58.30;;;;;;5051845;28;20199;-67
2023/11/05 04:09:02;;;;;;;2.10;1.27;;;21.30;58.20;;;;;;5051579;28;20406;-68
2023/11/05 04:11:28;;;;;;;1.30;1.10;;;21.40;58.30;;;;;;5051571;28;20209;-67
2023/11/05 04:13:53;;;;;;;1.87;1.47;;;21.30;58.20;;;;;;5051599;28;20448;-67
2023/11/05 04:16:19;;;;;;;2.07;1.43;;;21.30;58.20;;;;;;5051405;28;20206;-67
2023/11/05 04:18:45;;;;;;;2.47;1.10;;;21.40;58.30;;;;;;5051415;28;20187;-67
2023/11/05 04:21:11;;;;;;;1.87;1.27;;;21.30;58.20;;;;;;5051441;28;20178;-68
2023/11/05 04:23:36;;;;;;;1.67;1.30;;;21.30;58.70;;;;;;5051393;28;20406;-68
2023/11/05 04:26:03;;;;;;;1.83;1.50;;;21.40;58.30;;;;;;5051208;28;20736;-68
2023/11/05 04:28:29;;;;;;;2.00;1.30;;;21.30;58.20;;;;;;5051197;28;20167;-68
2023/11/05 04:30:55;;;;;;;1.63;1.23;;;21.30;58.20;;;;;;5051246;28;20412;-67
2023/11/05 04:33:20;;;;;;;1.80;1.50;;;21.40;58.30;;;;;;5051085;28;20175;-68
2023/11/05 04:35:46;;;;;;;1.53;1.10;;;21.40;58.30;;;;;;5040092;28;20583;-67
2023/11/05 04:38:11;;;;;;;1.83;1.07;;;21.30;58.20;;;;;;5031647;28;20237;-67
2023/11/05 04:40:37;;;;;;;1.40;1.10;;;21.30;58.20;;;;;;5031360;28;20183;-68
2023/11/05 04:43:03;;;;;;;1.77;1.03;;;21.40;58.30;;;;;;5030973;28;20206;-68
2023/11/05 04:45:30;;;;;;;2.00;1.10;;;21.30;58.20;;;;;;5030900;28;20282;-67
2023/11/05 04:47:56;;;;;;;2.40;1.40;;;21.30;58.20;;;;;;5030737;28;20418;-67
2023/11/05 04:50:22;;;;;;;2.17;1.30;;;21.30;58.20;;;;;;5030956;28;20421;-68
2023/11/05 04:52:52;;;;;;;1.97;1.40;;;21.30;58.20;;;;;;5030787;28;20444;-67
2023/11/05 04:55:18;;;;;;;2.53;1.27;;;21.40;58.30;;;;;;5030717;28;20203;-67
2023/11/05 04:57:43;;;;;;;1.10;1.00;;;21.30;58.20;;;;;;5030785;28;20464;-67
2023/11/05 05:00:09;;;;;;;1.50;1.10;;;21.30;58.20;;;;;;5029500;28;20290;-67
2023/11/05 05:02:35;;;;;;;1.60;1.20;;;21.30;58.20;;;;;;5030679;28;20182;-67
2023/11/05 05:05:01;;;;;;;2.60;1.27;;;21.30;58.30;;;;;;5030615;28;20434;-67
2023/11/05 05:07:26;;;;;;;1.63;1.10;;;21.40;58.30;;;;;;5030661;28;20669;-67
2023/11/05 05:09:52;;;;;;;2.33;1.30;;;21.30;58.30;;;;;;5030678;28;20183;-68
2023/11/05 05:12:18;;;;;;;1.77;1.13;;;21.30;58.30;;;;;;5030605;28;20221;-67
2023/11/05 05:14:43;;;;;;;2.30;1.23;;;21.30;58.30;;;;;;5030435;28;20182;-68
2023/11/05 05:17:10;;;;;;;1.90;1.03;;;21.40;58.30;;;;;;5030611;28;20306;-67
2023/11/05 05:19:36;;;;;;;1.53;1.43;;;21.30;58.30;;;;;;5030570;28;20606;-68
2023/11/05 05:22:02;;;;;;;2.60;1.20;;;21.30;58.30;;;;;;5030675;28;20486;-67
2023/11/05 05:24:28;;;;;;;1.90;1.50;;;21.30;58.30;;;;;;5030706;28;20229;-67
2023/11/05 05:26:54;;;;;;;2.77;1.40;;;21.30;58.30;;;;;;5030442;28;20438;-67
2023/11/05 05:29:19;;;;;;;1.40;1.13;;;21.30;58.30;;;;;;5030470;28;20839;-67
2023/11/05 05:31:45;;;;;;;1.60;1.10;;;21.30;58.30;;;;;;5030359;28;21023;-68
2023/11/05 05:34:11;;;;;;;1.37;0.93;;;21.30;58.30;;;;;;5030349;28;20199;-68
2023/11/05 05:36:39;;;;;;;2.40;1.27;;;21.30;58.30;;;;;;5030283;28;20204;-67
2023/11/05 05:39:05;;;;;;;2.00;1.00;;;21.30;58.30;;;;;;5030239;28;20171;-67
2023/11/05 05:41:31;;;;;;;1.67;1.30;;;21.30;58.30;;;;;;5030229;28;20413;-68
2023/11/05 05:43:56;;;;;;;1.27;0.83;;;21.30;58.30;;;;;;5030233;28;20210;-66
2023/11/05 05:46:22;;;;;;;1.53;1.10;;;21.30;58.30;;;;;;5030228;28;20233;-67
2023/11/05 05:48:48;;;;;;;2.20;1.10;;;21.30;58.30;;;;;;5030181;28;20673;-67
2023/11/05 05:51:14;;;;;;;2.00;1.10;;;21.30;58.30;;;;;;5030204;28;20221;-67
2023/11/05 05:53:40;;;;;;;1.20;0.97;;;21.30;58.20;;;;;;5030145;28;20210;-67
2023/11/05 05:56:06;;;;;;;1.67;0.90;;;21.30;58.20;;;;;;5030005;28;21008;-67
2023/11/05 05:58:32;;;;;;;2.87;1.20;;;21.30;58.20;;;;;;5030297;28;20176;-67
2023/11/05 06:00:58;;;;;;;1.20;0.90;;;21.40;58.30;;;;;;5032843;28;20993;-67
2023/11/05 06:03:24;;;;;;;1.40;1.10;;;21.30;58.20;;;;;;5034404;28;20176;-67
2023/11/05 06:05:49;;;;;;;1.10;0.90;;;21.40;58.30;;;;;;5034110;28;20869;-67
2023/11/05 06:08:15;;;;;;;2.77;1.20;;;21.30;58.20;;;;;;5034115;28;20666;-67
2023/11/05 06:10:41;;;;;;;1.60;1.03;;;21.40;58.30;;;;;;5034035;28;20656;-67
2023/11/05 06:13:07;;;;;;;1.60;1.10;;;21.30;58.20;;;;;;5033984;28;20198;-67
2023/11/05 06:15:33;;;;;;;2.80;1.30;;;21.40;58.20;;;;;;5033785;28;20540;-67
2023/11/05 06:17:59;;;;;;;2.33;1.20;;;21.30;58.20;;;;;;5033692;28;20493;-68
2023/11/05 06:20:24;;;;;;;2.33;1.47;;;21.40;58.30;;;;;;5033847;28;20573;-67
2023/11/05 06:22:54;;;;;;;2.00;1.10;;;21.40;58.20;;;;;;5034037;28;20539;-68
2023/11/05 06:25:20;;;;;;;1.83;1.00;;;21.30;58.20;;;;;;5033686;28;20188;-67
2023/11/05 06:27:45;;;;;;;1.40;0.90;;;21.30;58.20;;;;;;5033666;28;20951;-67
2023/11/05 06:30:11;;;;;;;1.57;1.10;;;21.30;58.20;;;;;;5032249;28;20176;-68
2023/11/05 06:32:38;;;;;;;1.47;0.90;;;21.30;58.20;;;;;;5033564;28;20172;-67
2023/11/05 06:35:04;;;;;;;1.53;1.10;;;21.30;58.10;;;;;;5033212;28;20426;-68
2023/11/05 06:37:30;;;;;;;1.77;0.90;;;21.30;58.20;;;;;;5033448;28;20433;-67
2023/11/05 06:39:57;;;;;;;1.53;1.20;;;21.40;58.20;;;;;;5033494;28;20494;-67
2023/11/05 06:42:22;;;;;;;1.90;1.03;;;21.30;58.20;;;;;;5033340;28;20781;-67
2023/11/05 06:44:48;;;;;;;0.90;0.70;;;21.40;58.20;;;;;;5033315;28;20398;-67
2023/11/05 06:47:14;;;;;;;1.83;0.90;;;21.40;58.20;;;;;;5033346;28;20642;-67
2023/11/05 06:49:39;;;;;;;1.20;1.10;;;21.40;58.20;;;;;;5033328;28;20453;-68
2023/11/05 06:52:05;;;;;;;2.33;1.50;;;21.30;58.20;;;;;;5033267;28;20179;-68
2023/11/05 06:54:31;;;;;;;1.90;1.07;;;21.40;58.20;;;;;;5033193;28;20183;-67
2023/11/05 06:56:57;;;;;;;2.10;1.10;;;21.40;58.20;;;;;;5033169;28;20242;-68
2023/11/05 06:59:23;;;;;;;4.13;1.90;;;21.30;58.20;;;;;;5032962;28;20394;-68
2023/11/05 07:01:50;;;;;;;2.40;1.50;;;21.40;58.50;;;;;;5033017;28;20506;-67
2023/11/05 07:04:17;;;;;;;1.30;1.10;;;21.30;58.20;;;;;;5033063;28;20497;-67
2023/11/05 07:06:45;;;;;;;1.80;1.17;;;21.40;58.30;;;;;;5033014;28;20442;-67
2023/11/05 07:09:12;;;;;;;1.63;1.00;;;21.30;58.20;;;;;;5032291;28;20414;-67
2023/11/05 07:11:37;;;;;;;1.37;1.00;;;21.30;58.20;;;;;;5032303;28;20418;-67
2023/11/05 07:14:03;;;;;;;2.27;1.00;;;21.40;58.30;;;;;;5032697;28;20437;-68
2023/11/05 07:16:29;;;;;;;1.63;1.20;;;21.40;58.30;;;;;;5031251;28;20203;-68
2023/11/05 07:18:54;;;;;;;2.10;1.10;;;21.30;58.20;;;;;;5031539;28;20442;-68
2023/11/05 07:21:20;;;;;;;1.63;1.40;;;21.40;58.30;;;;;;5032689;28;20167;-67
2023/11/05 07:23:47;;;;;;;1.53;1.03;;;21.30;58.20;;;;;;5031261;28;20176;-67
2023/11/05 07:26:13;;;;;;;1.80;1.10;;;21.40;58.30;;;;;;5032582;28;20191;-66
2023/11/05 07:28:38;;;;;;;1.30;1.00;;;21.40;58.30;;;;;;5032631;28;20441;-67
2023/11/05 07:31:04;;;;;;;1.63;1.17;;;21.30;58.20;;;;;;5032496;28;20187;-67
2023/11/05 07:33:30;;;;;;;1.67;1.10;;;21.40;58.30;;;;;;5032463;28;20183;-67
2023/11/05 07:35:56;;;;;;;1.13;0.80;;;21.30;58.20;;;;;;5032355;28;20207;-68
2023/11/05 07:38:22;;;;;;;1.10;0.90;;;21.30;58.20;;;;;;5032453;28;20164;-67
2023/11/05 07:40:48;;;;;;;1.40;1.00;;;21.40;58.20;;;;;;5032318;28;20414;-67
2023/11/05 07:43:14;;;;;;;1.40;1.03;;;21.40;58.20;;;;;;5032272;28;20171;-67
2023/11/05 07:45:40;;;;;;;1.40;1.30;;;21.30;58.20;;;;;;5032147;28;20270;-68
2023/11/05 07:48:05;;;;;;;2.00;1.30;;;21.30;58.20;;;;;;5032227;28;20468;-67
2023/11/05 07:50:31;;;;;;;1.57;1.07;;;21.40;58.20;;;;;;5032130;28;20176;-67
2023/11/05 07:52:57;;;;;;;1.87;1.00;;;21.40;58.20;;;;;;5032109;28;20176;-67
2023/11/05 07:55:22;;;;;;;3.20;1.20;;;21.30;58.20;;;;;;5031998;28;20460;-67
2023/11/05 07:57:49;;;;;;;1.10;0.83;;;21.30;58.20;;;;;;5031974;28;20176;-67
2023/11/05 08:00:18;;;;;;;1.20;1.10;;;21.40;58.20;;;;;;5032015;28;20164;-67
2023/11/05 08:02:45;;;;;;;1.80;1.03;;;21.40;58.20;;;;;;5031857;28;20786;-68
2023/11/05 08:05:11;;;;;;;1.67;1.07;;;21.40;58.20;;;;;;5031728;28;20484;-67
2023/11/05 08:07:36;;;;;;;1.27;1.00;;;21.40;58.20;;;;;;5030369;28;20410;-68
2023/11/05 08:10:09;;;;;;;1.80;0.90;;;21.30;58.20;;;;;;5032005;28;20445;-67
2023/11/05 08:12:35;;;;;;;1.87;0.90;;;21.30;58.10;;;;;;5031691;28;20164;-67
2023/11/05 08:15:01;;;;;;;2.73;1.30;;;21.30;58.20;;;;;;5031552;28;20509;-67
2023/11/05 08:17:27;;;;;;;1.27;0.83;;;21.40;58.20;;;;;;5031476;28;20922;-67
2023/11/05 08:19:53;;;;;;;1.53;1.00;;;21.40;58.20;;;;;;5031966;28;20423;-67
2023/11/05 08:22:19;;;;;;;1.40;0.93;;;21.30;58.10;;;;;;5031205;28;20172;-67
2023/11/05 08:24:45;;;;;;;1.10;0.87;;;21.30;58.10;;;;;;5031800;28;20410;-68
2023/11/05 08:27:12;;;;;;;1.87;1.00;;;21.40;58.20;;;;;;5032152;28;20198;-67
2023/11/05 08:29:40;;;;;;;1.20;1.00;;;21.30;58.10;;;;;;5031620;28;20410;-68
2023/11/05 08:32:09;;;;;;;1.60;1.07;;;21.40;58.20;;;;;;5031414;28;20564;-67
2023/11/05 08:34:35;;;;;;;1.10;0.90;;;21.30;58.10;;;;;;5031413;28;21241;-67
2023/11/05 08:37:07;;;;;;;1.20;0.97;;;21.30;58.20;;;;;;5029744;28;20465;-67
2023/11/05 08:39:33;;;;;;;2.13;1.03;;;21.40;58.80;;;;;;5031517;28;20642;-66
2023/11/05 08:41:58;;;;;;;2.23;1.00;;;21.30;58.10;;;;;;5031162;28;20406;-67
2023/11/05 08:44:24;;;;;;;1.27;0.80;;;21.30;58.20;;;;;;5031165;28;20769;-67
2023/11/05 08:46:51;;;;;;;1.63;1.17;;;21.40;58.20;;;;;;5031024;28;20203;-67
2023/11/05 08:49:17;;;;;;;1.40;0.90;;;21.40;58.20;;;;;;5031030;28;20611;-67
2023/11/05 08:51:43;;;;;;;1.30;0.90;;;21.30;58.20;;;;;;5031058;28;20509;-67
2023/11/05 08:54:08;;;;;;;1.20;0.80;;;21.30;58.10;;;;;;5030945;28;21145;-67
2023/11/05 08:56:34;;;;;;;1.30;1.00;;;21.40;58.20;;;;;;5030759;28;20204;-66
2023/11/05 08:59:00;;;;;;;1.97;0.90;;;21.40;58.20;;;;;;5030955;28;20254;-67
2023/11/05 09:01:25;;;;;;;1.60;0.80;;;21.30;58.20;;;;;;5030573;28;20176;-66
2023/11/05 09:03:51;;;;;;;1.10;0.90;;;21.40;58.20;;;;;;5029319;28;20172;-67
2023/11/05 09:06:18;;;;;;;1.10;0.80;;;21.40;58.20;;;;;;5030895;28;20202;-67
2023/11/05 09:08:44;;;;;;;1.50;0.90;;;21.40;58.20;;;;;;5030705;28;20498;-67
2023/11/05 09:11:11;;;;;;;1.10;0.87;;;21.40;58.30;;;;;;5030632;28;20847;-67
2023/11/05 09:13:37;;;;;;;1.60;1.10;;;21.30;58.20;;;;;;5030553;28;20195;-67
2023/11/05 09:16:06;;;;;;;1.90;1.10;;;21.30;58.20;;;;;;5030358;28;20545;-67
2023/11/05 09:18:34;;;;;;;1.70;1.07;;;21.30;58.30;;;;;;5030504;28;20529;-67
2023/11/05 09:21:00;;;;;;;1.37;1.00;;;21.40;58.30;;;;;;5030602;28;20415;-66
2023/11/05 09:23:26;;;;;;;2.10;1.00;;;21.40;58.30;;;;;;5030523;28;20905;-67
2023/11/05 09:25:52;;;;;;;1.87;1.20;;;21.40;58.40;;;;;;5030433;28;20195;-67
2023/11/05 09:28:18;;;;;;;1.60;1.50;;;21.40;58.30;;;;;;5030493;28;21191;-67
2023/11/05 09:30:45;;;;;;;2.13;0.97;;;21.40;58.40;;;;;;5030440;28;20406;-67
2023/11/05 09:33:11;;;;;;;1.53;1.10;;;21.40;58.40;;;;;;5029636;28;20258;-68
2023/11/05 09:35:37;;;;;;;2.77;1.20;;;21.40;58.40;;;;;;5030231;28;20450;-68
2023/11/05 09:38:03;;;;;;;2.77;1.00;;;21.40;58.90;;;;;;5030275;28;20403;-67
2023/11/05 09:40:31;;;;;;;3.07;1.67;;;21.40;58.30;;;;;;5030142;28;20174;-66
2023/11/05 09:43:04;;;;;;;1.33;0.93;;;21.40;58.30;;;;;;5028991;28;20230;-67
2023/11/05 09:45:35;;;;;;;4.40;2.00;;;21.40;58.30;;;;;;5030241;28;20492;-67
2023/11/05 09:48:11;;;;;;;3.47;1.47;;;21.40;58.30;;;;;;5030191;28;20948;-67
2023/11/05 09:50:38;;;;;;;2.07;1.60;;;21.40;58.40;;;;;;5030440;28;20425;-67
2023/11/05 09:53:11;;;;;;;2.17;1.30;;;21.40;58.30;;;;;;5030142;28;20941;-67
2023/11/05 09:55:39;;;;;;;2.53;1.47;;;21.40;58.30;;;;;;5029874;28;20493;-67
2023/11/05 09:58:05;;;;;;;1.97;1.53;;;21.40;58.30;;;;;;5030155;28;20414;-67
2023/11/05 10:00:31;;;;;;;2.97;1.40;;;21.40;58.30;;;;;;5030031;28;20414;-67
2023/11/05 10:02:58;;;;;;;2.33;1.20;;;21.40;58.30;;;;;;5030519;28;20418;-67
2023/11/05 10:05:25;;;;;;;1.40;1.10;;;21.40;58.30;;;;;;5029923;28;20414;-66
2023/11/05 10:07:51;;;;;;;1.90;1.10;;;21.40;58.30;;;;;;5029985;28;20417;-68
2023/11/05 10:10:17;;;;;;;1.53;1.10;;;21.40;58.20;;;;;;5029950;28;20890;-66
2023/11/05 10:12:43;;;;;;;2.70;1.50;;;21.40;58.20;;;;;;5030000;28;20503;-67
2023/11/05 10:15:09;;;;;;;2.90;1.47;;;21.40;58.20;;;;;;5029874;28;20426;-67
2023/11/05 10:17:35;;;;;;;1.50;1.20;;;21.40;58.20;;;;;;5028234;28;20207;-68
2023/11/05 10:20:02;;;;;;;3.90;2.63;;;21.40;58.20;;;;;;5030078;28;20447;-68
2023/11/05 10:22:27;;;;;;;1.57;1.20;;;21.40;58.20;;;;;;5029821;28;20438;-68
2023/11/05 10:24:53;;;;;;;1.87;1.60;;;21.40;58.20;;;;;;5032654;28;20446;-68
2023/11/05 10:27:27;;;;;;;2.30;1.50;;;21.40;58.20;;;;;;5030160;28;20979;-68
2023/11/05 10:29:54;;;;;;;1.70;1.37;;;21.40;58.20;;;;;;5029747;28;20164;-68
2023/11/05 10:32:22;;;;;;;1.97;1.33;;;21.40;58.20;;;;;;5030205;28;21282;-68
2023/11/05 10:34:51;;;;;;;2.67;1.33;;;21.40;58.20;;;;;;5029779;28;20917;-68
2023/11/05 10:37:18;;;;;;;2.20;1.47;;;21.40;58.30;;;;;;5029869;28;20469;-67
2023/11/05 10:39:43;;;;;;;2.40;1.47;;;21.40;58.30;;;;;;5029632;28;20434;-68
2023/11/05 10:42:12;;;;;;;4.10;1.50;;;21.40;58.40;;;;;;5028170;28;20803;-65
2023/11/05 10:44:45;;;;;;;2.17;1.57;;;21.40;58.50;;;;;;5031529;28;20175;-68
2023/11/05 10:47:11;;;;;;;3.77;1.50;;;21.40;58.40;;;;;;5033269;28;20497;-68
2023/11/05 10:49:39;;;;;;;2.80;1.73;;;21.40;58.40;;;;;;5031619;28;20457;-68
2023/11/05 10:52:06;;;;;;;4.23;1.83;;;21.40;58.30;;;;;;5033252;28;20839;-68
2023/11/05 10:54:34;;;;;;;2.10;1.80;;;21.40;58.30;;;;;;5033058;28;20920;-68
2023/11/05 10:56:59;;;;;;;2.67;1.90;;;21.40;58.20;;;;;;5033014;28;20493;-69
2023/11/05 10:59:38;;;;;;;6.60;2.20;;;21.40;58.20;;;;;;5033068;28;20453;-70
2023/11/05 11:02:07;;;;;;;4.60;1.77;;;21.40;58.20;;;;;;5032835;28;20709;-68
2023/11/05 11:04:32;;;;;;;3.20;1.73;;;21.40;58.20;;;;;;5032527;28;20476;-69
2023/11/05 11:06:58;;;;;;;4.67;1.97;;;21.40;58.20;;;;;;5031564;28;20442;-69
2023/11/05 11:09:27;;;;;;;2.33;1.63;;;21.40;58.20;;;;;;5032917;28;20175;-69
2023/11/05 11:11:54;;;;;;;3.10;1.90;;;21.40;58.20;;;;;;5032902;28;20208;-70
2023/11/05 11:14:24;;;;;;;2.63;1.97;;;21.40;58.20;;;;;;5033036;28;20418;-69
2023/11/05 11:16:49;;;;;;;3.73;1.80;;;21.40;58.20;;;;;;5032610;28;20600;-68
2023/11/05 11:19:17;;;;;;;3.30;2.00;;;21.40;58.20;;;;;;5032686;28;20983;-69
2023/11/05 11:22:05;;;;;;;4.00;1.40;;;21.40;58.20;;;;;;5032717;28;20179;-69
2023/11/05 11:24:42;;;;;;;3.50;1.67;;;21.40;58.20;;;;;;5032633;28;20402;-67
2023/11/05 11:27:13;;;;;;;4.43;1.70;;;21.40;58.20;;;;;;5032505;28;20406;-69
2023/11/05 11:29:41;;;;;;;2.27;1.30;;;21.40;58.30;;;;;;5032442;28;20458;-69
2023/11/05 11:32:07;;;;;;;1.80;1.53;;;21.40;58.20;;;;;;5032382;28;20472;-69
2023/11/05 11:34:34;;;;;;;2.17;1.37;;;21.40;58.20;;;;;;5032344;28;20493;-70
2023/11/05 11:37:02;;;;;;;2.80;1.80;;;21.40;58.20;;;;;;5032132;28;20454;-69
2023/11/05 11:39:28;;;;;;;4.13;1.70;;;21.40;58.20;;;;;;5032223;28;20414;-68
2023/11/05 11:41:54;;;;;;;3.30;1.70;;;21.40;58.20;;;;;;5032168;28;20415;-69
2023/11/05 11:44:20;;;;;;;2.93;2.00;;;21.40;58.20;;;;;;5032143;28;20483;-69
2023/11/05 11:46:47;;;;;;;2.33;1.80;;;21.40;58.20;;;;;;5030691;28;20445;-70
2023/11/05 11:49:13;;;;;;;2.90;1.80;;;21.40;58.20;;;;;;5032091;28;20418;-68
2023/11/05 11:51:40;;;;;;;4.50;1.87;;;21.40;58.20;;;;;;5030927;28;20472;-69
2023/11/05 11:54:07;;;;;;;4.37;2.03;;;21.40;58.20;;;;;;5031864;28;20419;-69
2023/11/05 11:56:33;;;;;;;3.30;1.70;;;21.40;58.20;;;;;;5031003;28;20559;-69
2023/11/05 11:59:05;;;;;;;2.40;1.67;;;21.40;58.20;;;;;;5031919;28;20440;-70
2023/11/05 12:01:32;;;;;;;3.47;1.93;;;21.40;58.20;;;;;;5031964;28;20271;-66
2023/11/05 12:03:59;;;;;;;2.87;1.73;;;21.40;58.30;;;;;;5031715;28;20445;-67
2023/11/05 12:06:27;;;;;;;3.53;1.97;;;21.40;58.90;;;;;;5031702;28;20430;-69
2023/11/05 12:08:54;;;;;;;4.00;1.47;;;21.40;58.40;;;;;;5031707;28;20418;-69
2023/11/05 12:11:20;;;;;;;3.23;1.40;;;21.40;58.40;;;;;;5031611;28;20414;-69
2023/11/05 12:13:46;;;;;;;4.90;1.53;;;21.40;58.40;;;;;;5031531;28;20421;-70
2023/11/05 12:16:17;;;;;;;1.90;1.40;;;21.40;58.50;;;;;;5031297;28;20458;-70
2023/11/05 12:18:44;;;;;;;4.77;1.60;;;21.40;59.00;;;;;;5031433;28;20429;-69
2023/11/05 12:21:14;;;;;;;3.07;1.50;;;21.40;58.40;;;;;;5031621;28;20418;-69
2023/11/05 12:23:43;;;;;;;2.60;1.63;;;21.40;58.40;;;;;;5031379;28;21111;-69
2023/11/05 12:26:11;;;;;;;4.03;2.03;;;21.40;58.50;;;;;;5031113;28;20430;-68
2023/11/05 12:28:37;;;;;;;2.83;1.50;;;21.40;58.50;;;;;;5031410;28;20961;-69
2023/11/05 12:31:04;;;;;;;2.70;1.70;;;21.40;58.40;;;;;;5031205;28;20418;-69
2023/11/05 12:33:42;;;;;;;4.50;1.67;;;21.40;58.40;;;;;;5029657;28;20537;-68
2023/11/05 12:36:09;;;;;;;3.73;1.50;;;21.40;58.50;;;;;;5030863;28;20516;-69
2023/11/05 12:38:35;;;;;;;2.80;1.67;;;21.40;59.00;;;;;;5030956;28;20430;-69
2023/11/05 12:41:01;;;;;;;3.40;1.53;;;21.40;58.40;;;;;;5030992;28;20484;-69
2023/11/05 12:43:26;;;;;;;3.90;1.87;;;21.40;58.50;;;;;;5030977;28;20168;-69